sensor_id;sensor_type;location;lat;lon;timestamp;P1;durP1;ratioP1;P2;durP2;ratioP2
19396;SDS011;9834;48.076;11.878;2023-07-13T00:02:05;1.80;;;1.37;;
19396;SDS011;9834;48.076;11.878;2023-07-13T00:04:32;2.63;;;1.60;;
19396;SDS011;9834;48.076;11.878;2023-07-13T00:06:59;1.77;;;1.67;;
19396;SDS011;9834;48.076;11.878;2023-07-13T00:09:26;5.40;;;2.87;;
19396;SDS011;9834;48.076;11.878;2023-07-13T00:11:55;1.70;;;1.60;;
19396;SDS011;9834;48.076;11.878;2023-07-13T00:14:23;3.80;;;1.70;;
19396;SDS011;9834;48.076;11.878;2023-07-13T00:16:54;2.10;;;1.73;;
19396;SDS011;9834;48.076;11.878;2023-07-13T00:19:22;1.87;;;1.77;;
19396;SDS011;9834;48.076;11.878;2023-07-13T00:21:49;5.43;;;2.10;;
19396;SDS011;9834;48.076;11.878;2023-07-13T00:24:16;2.13;;;1.53;;
19396;SDS011;9834;48.076;11.878;2023-07-13T00:26:48;1.37;;;1.27;;
19396;SDS011;9834;48.076;11.878;2023-07-13T00:29:17;2.00;;;1.80;;
19396;SDS011;9834;48.076;11.878;2023-07-13T00:31:46;1.90;;;1.80;;
19396;SDS011;9834;48.076;11.878;2023-07-13T00:34:13;1.63;;;1.53;;
19396;SDS011;9834;48.076;11.878;2023-07-13T00:36:40;1.87;;;1.70;;
19396;SDS011;9834;48.076;11.878;2023-07-13T00:39:07;3.83;;;2.50;;
19396;SDS011;9834;48.076;11.878;2023-07-13T00:41:34;2.57;;;1.80;;
19396;SDS011;9834;48.076;11.878;2023-07-13T00:44:02;1.87;;;1.73;;
19396;SDS011;9834;48.076;11.878;2023-07-13T00:46:31;2.53;;;2.20;;
19396;SDS011;9834;48.076;11.878;2023-07-13T00:49:00;2.80;;;1.30;;
19396;SDS011;9834;48.076;11.878;2023-07-13T00:51:31;3.47;;;1.80;;
19396;SDS011;9834;48.076;11.878;2023-07-13T00:54:03;2.37;;;2.17;;
19396;SDS011;9834;48.076;11.878;2023-07-13T00:56:35;8.27;;;2.60;;
19396;SDS011;9834;48.076;11.878;2023-07-13T00:59:03;3.17;;;2.10;;
19396;SDS011;9834;48.076;11.878;2023-07-13T01:01:34;12.30;;;2.47;;
19396;SDS011;9834;48.076;11.878;2023-07-13T01:04:02;2.40;;;2.20;;
19396;SDS011;9834;48.076;11.878;2023-07-13T01:06:32;1.73;;;1.60;;
19396;SDS011;9834;48.076;11.878;2023-07-13T01:09:00;2.27;;;2.17;;
19396;SDS011;9834;48.076;11.878;2023-07-13T01:11:28;6.43;;;1.57;;
19396;SDS011;9834;48.076;11.878;2023-07-13T01:13:55;1.03;;;1.00;;
19396;SDS011;9834;48.076;11.878;2023-07-13T01:16:24;1.70;;;1.60;;
19396;SDS011;9834;48.076;11.878;2023-07-13T01:18:54;8.60;;;1.50;;
19396;SDS011;9834;48.076;11.878;2023-07-13T01:21:25;2.73;;;1.93;;
19396;SDS011;9834;48.076;11.878;2023-07-13T01:23:53;2.30;;;2.10;;
19396;SDS011;9834;48.076;11.878;2023-07-13T01:26:21;1.73;;;1.63;;
19396;SDS011;9834;48.076;11.878;2023-07-13T01:28:48;1.40;;;1.30;;
19396;SDS011;9834;48.076;11.878;2023-07-13T01:31:15;4.03;;;1.93;;
19396;SDS011;9834;48.076;11.878;2023-07-13T01:33:42;1.93;;;1.80;;
19396;SDS011;9834;48.076;11.878;2023-07-13T01:36:09;1.77;;;1.67;;
19396;SDS011;9834;48.076;11.878;2023-07-13T01:38:38;3.60;;;2.03;;
19396;SDS011;9834;48.076;11.878;2023-07-13T01:41:05;1.60;;;1.50;;
19396;SDS011;9834;48.076;11.878;2023-07-13T01:43:33;3.17;;;1.53;;
19396;SDS011;9834;48.076;11.878;2023-07-13T01:46:00;3.33;;;1.83;;
19396;SDS011;9834;48.076;11.878;2023-07-13T01:48:26;2.27;;;1.43;;
19396;SDS011;9834;48.076;11.878;2023-07-13T01:50:53;1.90;;;1.43;;
19396;SDS011;9834;48.076;11.878;2023-07-13T01:53:21;3.77;;;2.10;;
19396;SDS011;9834;48.076;11.878;2023-07-13T01:55:49;2.90;;;1.60;;
19396;SDS011;9834;48.076;11.878;2023-07-13T01:58:16;2.93;;;1.90;;
19396;SDS011;9834;48.076;11.878;2023-07-13T02:00:43;2.93;;;2.17;;
19396;SDS011;9834;48.076;11.878;2023-07-13T02:03:10;1.77;;;1.67;;
19396;SDS011;9834;48.076;11.878;2023-07-13T02:05:39;1.60;;;1.50;;
19396;SDS011;9834;48.076;11.878;2023-07-13T02:08:06;1.60;;;1.50;;
19396;SDS011;9834;48.076;11.878;2023-07-13T02:10:33;2.53;;;1.73;;
19396;SDS011;9834;48.076;11.878;2023-07-13T02:13:01;3.13;;;2.10;;
19396;SDS011;9834;48.076;11.878;2023-07-13T02:15:30;2.17;;;1.97;;
19396;SDS011;9834;48.076;11.878;2023-07-13T02:17:57;5.43;;;2.70;;
19396;SDS011;9834;48.076;11.878;2023-07-13T02:20:25;1.83;;;1.73;;
19396;SDS011;9834;48.076;11.878;2023-07-13T02:22:52;1.80;;;1.70;;
19396;SDS011;9834;48.076;11.878;2023-07-13T02:25:19;2.27;;;2.03;;
19396;SDS011;9834;48.076;11.878;2023-07-13T02:27:46;2.23;;;2.07;;
19396;SDS011;9834;48.076;11.878;2023-07-13T02:30:14;1.53;;;1.43;;
19396;SDS011;9834;48.076;11.878;2023-07-13T02:32:41;2.00;;;1.67;;
19396;SDS011;9834;48.076;11.878;2023-07-13T02:35:08;2.07;;;1.87;;
19396;SDS011;9834;48.076;11.878;2023-07-13T02:37:35;1.70;;;1.60;;
19396;SDS011;9834;48.076;11.878;2023-07-13T02:40:03;1.70;;;1.60;;
19396;SDS011;9834;48.076;11.878;2023-07-13T02:42:33;6.63;;;1.90;;
19396;SDS011;9834;48.076;11.878;2023-07-13T02:45:00;1.87;;;1.73;;
19396;SDS011;9834;48.076;11.878;2023-07-13T02:47:28;4.67;;;2.73;;
19396;SDS011;9834;48.076;11.878;2023-07-13T02:49:55;6.03;;;2.20;;
19396;SDS011;9834;48.076;11.878;2023-07-13T02:52:22;1.60;;;1.50;;
19396;SDS011;9834;48.076;11.878;2023-07-13T02:54:49;2.00;;;1.90;;
19396;SDS011;9834;48.076;11.878;2023-07-13T02:57:16;1.80;;;1.60;;
19396;SDS011;9834;48.076;11.878;2023-07-13T02:59:43;2.00;;;1.90;;
19396;SDS011;9834;48.076;11.878;2023-07-13T03:02:10;1.80;;;1.40;;
19396;SDS011;9834;48.076;11.878;2023-07-13T03:04:39;2.50;;;1.90;;
19396;SDS011;9834;48.076;11.878;2023-07-13T03:07:06;4.17;;;1.67;;
19396;SDS011;9834;48.076;11.878;2023-07-13T03:09:34;2.50;;;2.30;;
19396;SDS011;9834;48.076;11.878;2023-07-13T03:12:02;1.63;;;1.43;;
19396;SDS011;9834;48.076;11.878;2023-07-13T03:14:30;2.87;;;2.33;;
19396;SDS011;9834;48.076;11.878;2023-07-13T03:16:57;2.20;;;1.77;;
19396;SDS011;9834;48.076;11.878;2023-07-13T03:19:24;3.40;;;1.50;;
19396;SDS011;9834;48.076;11.878;2023-07-13T03:21:52;2.27;;;2.13;;
19396;SDS011;9834;48.076;11.878;2023-07-13T03:24:19;3.27;;;1.83;;
19396;SDS011;9834;48.076;11.878;2023-07-13T03:26:51;2.23;;;2.00;;
19396;SDS011;9834;48.076;11.878;2023-07-13T03:29:18;7.63;;;2.70;;
19396;SDS011;9834;48.076;11.878;2023-07-13T03:31:45;3.90;;;2.60;;
19396;SDS011;9834;48.076;11.878;2023-07-13T03:34:12;2.60;;;2.20;;
19396;SDS011;9834;48.076;11.878;2023-07-13T03:36:39;3.20;;;2.40;;
19396;SDS011;9834;48.076;11.878;2023-07-13T03:39:08;2.60;;;2.40;;
19396;SDS011;9834;48.076;11.878;2023-07-13T03:41:36;3.50;;;2.93;;
19396;SDS011;9834;48.076;11.878;2023-07-13T03:44:03;4.67;;;3.10;;
19396;SDS011;9834;48.076;11.878;2023-07-13T03:46:30;4.30;;;3.00;;
19396;SDS011;9834;48.076;11.878;2023-07-13T03:49:14;2.70;;;2.50;;
19396;SDS011;9834;48.076;11.878;2023-07-13T03:51:41;5.03;;;3.10;;
19396;SDS011;9834;48.076;11.878;2023-07-13T03:54:09;3.43;;;2.80;;
19396;SDS011;9834;48.076;11.878;2023-07-13T03:56:36;3.37;;;3.00;;
19396;SDS011;9834;48.076;11.878;2023-07-13T03:59:17;3.00;;;2.47;;
19396;SDS011;9834;48.076;11.878;2023-07-13T04:01:53;3.70;;;3.30;;
19396;SDS011;9834;48.076;11.878;2023-07-13T04:04:21;4.83;;;3.10;;
19396;SDS011;9834;48.076;11.878;2023-07-13T04:06:49;5.07;;;3.10;;
19396;SDS011;9834;48.076;11.878;2023-07-13T04:09:19;2.87;;;2.67;;
19396;SDS011;9834;48.076;11.878;2023-07-13T04:11:46;2.13;;;1.93;;
19396;SDS011;9834;48.076;11.878;2023-07-13T04:14:13;2.90;;;2.10;;
19396;SDS011;9834;48.076;11.878;2023-07-13T04:16:40;5.73;;;2.40;;
19396;SDS011;9834;48.076;11.878;2023-07-13T04:19:07;2.60;;;2.40;;
19396;SDS011;9834;48.076;11.878;2023-07-13T04:21:35;4.53;;;1.97;;
19396;SDS011;9834;48.076;11.878;2023-07-13T04:24:03;2.63;;;2.43;;
19396;SDS011;9834;48.076;11.878;2023-07-13T04:26:31;1.97;;;1.87;;
19396;SDS011;9834;48.076;11.878;2023-07-13T04:29:01;3.30;;;2.90;;
19396;SDS011;9834;48.076;11.878;2023-07-13T04:31:29;3.23;;;2.57;;
19396;SDS011;9834;48.076;11.878;2023-07-13T04:33:56;4.37;;;2.87;;
19396;SDS011;9834;48.076;11.878;2023-07-13T04:36:23;2.80;;;2.57;;
19396;SDS011;9834;48.076;11.878;2023-07-13T04:38:54;3.87;;;2.90;;
19396;SDS011;9834;48.076;11.878;2023-07-13T04:41:21;3.17;;;2.37;;
19396;SDS011;9834;48.076;11.878;2023-07-13T04:43:50;3.27;;;2.97;;
19396;SDS011;9834;48.076;11.878;2023-07-13T04:46:17;3.73;;;3.40;;
19396;SDS011;9834;48.076;11.878;2023-07-13T04:48:44;2.60;;;2.40;;
19396;SDS011;9834;48.076;11.878;2023-07-13T04:51:11;3.17;;;2.60;;
19396;SDS011;9834;48.076;11.878;2023-07-13T04:53:38;3.20;;;2.50;;
19396;SDS011;9834;48.076;11.878;2023-07-13T04:56:05;2.63;;;2.50;;
19396;SDS011;9834;48.076;11.878;2023-07-13T04:58:32;2.37;;;2.17;;
19396;SDS011;9834;48.076;11.878;2023-07-13T05:01:02;3.73;;;2.80;;
19396;SDS011;9834;48.076;11.878;2023-07-13T05:03:30;4.97;;;2.47;;
19396;SDS011;9834;48.076;11.878;2023-07-13T05:05:58;5.33;;;2.17;;
19396;SDS011;9834;48.076;11.878;2023-07-13T05:08:26;3.43;;;2.73;;
19396;SDS011;9834;48.076;11.878;2023-07-13T05:10:53;3.53;;;2.67;;
19396;SDS011;9834;48.076;11.878;2023-07-13T05:13:20;3.63;;;3.10;;
19396;SDS011;9834;48.076;11.878;2023-07-13T05:18:34;2.03;;;1.93;;
19396;SDS011;9834;48.076;11.878;2023-07-13T05:21:02;3.57;;;2.40;;
19396;SDS011;9834;48.076;11.878;2023-07-13T05:23:31;1.97;;;1.83;;
19396;SDS011;9834;48.076;11.878;2023-07-13T05:25:59;2.60;;;2.23;;
19396;SDS011;9834;48.076;11.878;2023-07-13T05:28:27;1.83;;;1.73;;
19396;SDS011;9834;48.076;11.878;2023-07-13T05:30:55;3.33;;;2.37;;
19396;SDS011;9834;48.076;11.878;2023-07-13T05:33:23;2.60;;;2.30;;
19396;SDS011;9834;48.076;11.878;2023-07-13T05:35:53;2.07;;;1.77;;
19396;SDS011;9834;48.076;11.878;2023-07-13T05:38:20;3.83;;;1.97;;
19396;SDS011;9834;48.076;11.878;2023-07-13T05:40:47;2.63;;;2.10;;
19396;SDS011;9834;48.076;11.878;2023-07-13T05:43:16;6.73;;;1.80;;
19396;SDS011;9834;48.076;11.878;2023-07-13T05:45:43;2.40;;;2.20;;
19396;SDS011;9834;48.076;11.878;2023-07-13T05:48:10;2.77;;;2.23;;
19396;SDS011;9834;48.076;11.878;2023-07-13T05:50:38;5.80;;;2.73;;
19396;SDS011;9834;48.076;11.878;2023-07-13T05:53:06;2.00;;;1.80;;
19396;SDS011;9834;48.076;11.878;2023-07-13T05:55:33;3.23;;;2.37;;
19396;SDS011;9834;48.076;11.878;2023-07-13T05:58:00;3.70;;;2.63;;
19396;SDS011;9834;48.076;11.878;2023-07-13T06:00:27;2.67;;;1.73;;
19396;SDS011;9834;48.076;11.878;2023-07-13T06:02:55;2.07;;;1.70;;
19396;SDS011;9834;48.076;11.878;2023-07-13T06:05:23;2.87;;;1.60;;
19396;SDS011;9834;48.076;11.878;2023-07-13T06:07:52;1.90;;;1.80;;
19396;SDS011;9834;48.076;11.878;2023-07-13T06:10:19;2.97;;;1.77;;
19396;SDS011;9834;48.076;11.878;2023-07-13T06:12:46;1.73;;;1.60;;
19396;SDS011;9834;48.076;11.878;2023-07-13T06:15:13;4.20;;;2.10;;
19396;SDS011;9834;48.076;11.878;2023-07-13T06:17:41;1.80;;;1.70;;
19396;SDS011;9834;48.076;11.878;2023-07-13T06:20:09;1.90;;;1.80;;
19396;SDS011;9834;48.076;11.878;2023-07-13T06:22:36;1.53;;;1.40;;
19396;SDS011;9834;48.076;11.878;2023-07-13T06:25:05;3.97;;;2.20;;
19396;SDS011;9834;48.076;11.878;2023-07-13T06:27:33;1.83;;;1.73;;
19396;SDS011;9834;48.076;11.878;2023-07-13T06:30:00;2.33;;;1.90;;
19396;SDS011;9834;48.076;11.878;2023-07-13T06:32:40;4.57;;;1.93;;
19396;SDS011;9834;48.076;11.878;2023-07-13T06:35:07;1.33;;;1.23;;
19396;SDS011;9834;48.076;11.878;2023-07-13T06:37:37;3.23;;;1.90;;
19396;SDS011;9834;48.076;11.878;2023-07-13T06:40:06;1.83;;;1.73;;
19396;SDS011;9834;48.076;11.878;2023-07-13T06:42:34;4.03;;;1.93;;
19396;SDS011;9834;48.076;11.878;2023-07-13T06:45:01;0.97;;;0.90;;
19396;SDS011;9834;48.076;11.878;2023-07-13T06:47:28;8.00;;;1.57;;
19396;SDS011;9834;48.076;11.878;2023-07-13T06:49:55;1.43;;;1.33;;
19396;SDS011;9834;48.076;11.878;2023-07-13T06:52:22;1.60;;;1.50;;
19396;SDS011;9834;48.076;11.878;2023-07-13T06:54:49;2.03;;;1.83;;
19396;SDS011;9834;48.076;11.878;2023-07-13T06:57:17;1.13;;;0.93;;
19396;SDS011;9834;48.076;11.878;2023-07-13T06:59:44;1.40;;;1.23;;
19396;SDS011;9834;48.076;11.878;2023-07-13T07:02:12;1.57;;;1.30;;
19396;SDS011;9834;48.076;11.878;2023-07-13T07:04:38;2.10;;;0.83;;
19396;SDS011;9834;48.076;11.878;2023-07-13T07:07:05;2.40;;;1.43;;
19396;SDS011;9834;48.076;11.878;2023-07-13T07:09:32;2.27;;;1.80;;
19396;SDS011;9834;48.076;11.878;2023-07-13T07:11:59;1.40;;;1.30;;
19396;SDS011;9834;48.076;11.878;2023-07-13T07:14:28;5.40;;;1.90;;
19396;SDS011;9834;48.076;11.878;2023-07-13T07:16:55;2.30;;;1.40;;
19396;SDS011;9834;48.076;11.878;2023-07-13T07:19:23;1.35;;;1.25;;
19396;SDS011;9834;48.076;11.878;2023-07-13T07:21:50;2.33;;;1.08;;
19396;SDS011;9834;48.076;11.878;2023-07-13T07:24:17;1.33;;;1.23;;
19396;SDS011;9834;48.076;11.878;2023-07-13T07:26:44;1.53;;;1.40;;
19396;SDS011;9834;48.076;11.878;2023-07-13T07:29:11;2.88;;;1.45;;
19396;SDS011;9834;48.076;11.878;2023-07-13T07:31:39;1.48;;;1.38;;
19396;SDS011;9834;48.076;11.878;2023-07-13T07:34:06;2.10;;;1.75;;
19396;SDS011;9834;48.076;11.878;2023-07-13T07:36:33;1.42;;;1.33;;
19396;SDS011;9834;48.076;11.878;2023-07-13T07:39:00;1.63;;;1.52;;
19396;SDS011;9834;48.076;11.878;2023-07-13T07:41:27;1.42;;;1.33;;
19396;SDS011;9834;48.076;11.878;2023-07-13T07:43:54;1.92;;;1.58;;
19396;SDS011;9834;48.076;11.878;2023-07-13T07:46:21;5.60;;;1.48;;
19396;SDS011;9834;48.076;11.878;2023-07-13T07:48:50;2.15;;;1.65;;
19396;SDS011;9834;48.076;11.878;2023-07-13T07:51:17;1.40;;;1.30;;
19396;SDS011;9834;48.076;11.878;2023-07-13T07:53:44;1.15;;;1.08;;
19396;SDS011;9834;48.076;11.878;2023-07-13T07:56:10;1.63;;;1.53;;
19396;SDS011;9834;48.076;11.878;2023-07-13T07:58:37;1.88;;;1.70;;
19396;SDS011;9834;48.076;11.878;2023-07-13T08:01:05;1.50;;;1.40;;
19396;SDS011;9834;48.076;11.878;2023-07-13T08:03:32;1.33;;;1.23;;
19396;SDS011;9834;48.076;11.878;2023-07-13T08:06:03;2.15;;;1.48;;
19396;SDS011;9834;48.076;11.878;2023-07-13T08:08:30;2.13;;;1.93;;
19396;SDS011;9834;48.076;11.878;2023-07-13T08:10:56;1.50;;;1.40;;
19396;SDS011;9834;48.076;11.878;2023-07-13T08:13:23;1.80;;;1.38;;
19396;SDS011;9834;48.076;11.878;2023-07-13T08:15:50;1.85;;;1.75;;
19396;SDS011;9834;48.076;11.878;2023-07-13T08:18:17;4.63;;;1.75;;
19396;SDS011;9834;48.076;11.878;2023-07-13T08:20:44;1.83;;;1.30;;
19396;SDS011;9834;48.076;11.878;2023-07-13T08:23:12;2.72;;;1.60;;
19396;SDS011;9834;48.076;11.878;2023-07-13T08:25:41;1.73;;;1.50;;
19396;SDS011;9834;48.076;11.878;2023-07-13T08:28:08;1.73;;;1.33;;
19396;SDS011;9834;48.076;11.878;2023-07-13T08:30:38;3.25;;;1.75;;
19396;SDS011;9834;48.076;11.878;2023-07-13T08:33:05;2.70;;;1.50;;
19396;SDS011;9834;48.076;11.878;2023-07-13T08:35:32;1.60;;;1.50;;
19396;SDS011;9834;48.076;11.878;2023-07-13T08:37:59;3.40;;;2.10;;
19396;SDS011;9834;48.076;11.878;2023-07-13T08:40:27;2.23;;;1.67;;
19396;SDS011;9834;48.076;11.878;2023-07-13T08:42:55;1.97;;;1.87;;
19396;SDS011;9834;48.076;11.878;2023-07-13T08:45:25;2.20;;;1.73;;
19396;SDS011;9834;48.076;11.878;2023-07-13T08:48:01;2.33;;;1.83;;
19396;SDS011;9834;48.076;11.878;2023-07-13T08:50:32;1.47;;;1.37;;
19396;SDS011;9834;48.076;11.878;2023-07-13T08:53:05;1.70;;;1.60;;
19396;SDS011;9834;48.076;11.878;2023-07-13T08:55:36;2.60;;;1.80;;
19396;SDS011;9834;48.076;11.878;2023-07-13T08:58:05;4.80;;;2.40;;
19396;SDS011;9834;48.076;11.878;2023-07-13T09:00:38;3.53;;;2.27;;
19396;SDS011;9834;48.076;11.878;2023-07-13T09:03:12;2.10;;;1.80;;
19396;SDS011;9834;48.076;11.878;2023-07-13T09:05:47;1.83;;;1.53;;
19396;SDS011;9834;48.076;11.878;2023-07-13T09:08:27;5.57;;;2.23;;
19396;SDS011;9834;48.076;11.878;2023-07-13T09:11:13;4.13;;;2.03;;
19396;SDS011;9834;48.076;11.878;2023-07-13T09:13:52;2.13;;;1.70;;
19396;SDS011;9834;48.076;11.878;2023-07-13T09:16:27;2.50;;;2.03;;
19396;SDS011;9834;48.076;11.878;2023-07-13T09:18:55;2.13;;;1.93;;
19396;SDS011;9834;48.076;11.878;2023-07-13T09:21:28;3.03;;;1.93;;
19396;SDS011;9834;48.076;11.878;2023-07-13T09:23:59;2.17;;;1.67;;
19396;SDS011;9834;48.076;11.878;2023-07-13T09:26:31;5.23;;;1.80;;
19396;SDS011;9834;48.076;11.878;2023-07-13T09:28:59;2.23;;;1.80;;
19396;SDS011;9834;48.076;11.878;2023-07-13T09:31:38;2.27;;;1.90;;
19396;SDS011;9834;48.076;11.878;2023-07-13T09:34:09;1.20;;;1.10;;
19396;SDS011;9834;48.076;11.878;2023-07-13T09:36:38;2.83;;;1.70;;
19396;SDS011;9834;48.076;11.878;2023-07-13T09:39:07;2.13;;;1.30;;
19396;SDS011;9834;48.076;11.878;2023-07-13T09:41:41;4.43;;;2.17;;
19396;SDS011;9834;48.076;11.878;2023-07-13T09:44:16;2.50;;;2.13;;
19396;SDS011;9834;48.076;11.878;2023-07-13T09:46:54;2.33;;;2.13;;
19396;SDS011;9834;48.076;11.878;2023-07-13T09:49:23;6.43;;;2.73;;
19396;SDS011;9834;48.076;11.878;2023-07-13T09:51:57;2.87;;;1.60;;
19396;SDS011;9834;48.076;11.878;2023-07-13T09:54:28;2.20;;;1.90;;
19396;SDS011;9834;48.076;11.878;2023-07-13T09:57:02;2.10;;;1.77;;
19396;SDS011;9834;48.076;11.878;2023-07-13T09:59:39;2.17;;;2.03;;
19396;SDS011;9834;48.076;11.878;2023-07-13T10:02:22;2.93;;;2.13;;
19396;SDS011;9834;48.076;11.878;2023-07-13T10:04:55;2.87;;;2.23;;
19396;SDS011;9834;48.076;11.878;2023-07-13T10:07:32;1.70;;;1.60;;
19396;SDS011;9834;48.076;11.878;2023-07-13T10:10:14;1.47;;;1.40;;
19396;SDS011;9834;48.076;11.878;2023-07-13T10:12:43;1.60;;;1.50;;
19396;SDS011;9834;48.076;11.878;2023-07-13T10:15:13;2.03;;;1.85;;
19396;SDS011;9834;48.076;11.878;2023-07-13T10:17:42;2.75;;;2.00;;
19396;SDS011;9834;48.076;11.878;2023-07-13T10:20:10;2.55;;;1.70;;
19396;SDS011;9834;48.076;11.878;2023-07-13T10:22:39;3.05;;;1.50;;
19396;SDS011;9834;48.076;11.878;2023-07-13T10:25:16;2.25;;;1.70;;
19396;SDS011;9834;48.076;11.878;2023-07-13T10:27:46;1.35;;;1.25;;
19396;SDS011;9834;48.076;11.878;2023-07-13T10:30:17;3.38;;;1.85;;
19396;SDS011;9834;48.076;11.878;2023-07-13T10:32:47;2.00;;;1.80;;
19396;SDS011;9834;48.076;11.878;2023-07-13T10:35:18;6.38;;;2.15;;
19396;SDS011;9834;48.076;11.878;2023-07-13T10:37:48;1.73;;;1.63;;
19396;SDS011;9834;48.076;11.878;2023-07-13T10:40:19;1.38;;;1.30;;
19396;SDS011;9834;48.076;11.878;2023-07-13T10:42:54;7.55;;;1.90;;
19396;SDS011;9834;48.076;11.878;2023-07-13T10:45:24;1.42;;;1.33;;
19396;SDS011;9834;48.076;11.878;2023-07-13T10:47:53;1.50;;;1.40;;
19396;SDS011;9834;48.076;11.878;2023-07-13T10:50:22;2.28;;;1.73;;
19396;SDS011;9834;48.076;11.878;2023-07-13T10:52:51;3.42;;;1.15;;
19396;SDS011;9834;48.076;11.878;2023-07-13T10:55:31;2.15;;;1.40;;
19396;SDS011;9834;48.076;11.878;2023-07-13T10:58:11;1.50;;;1.20;;
19396;SDS011;9834;48.076;11.878;2023-07-13T11:00:47;3.28;;;1.40;;
19396;SDS011;9834;48.076;11.878;2023-07-13T11:03:17;1.17;;;1.13;;
19396;SDS011;9834;48.076;11.878;2023-07-13T11:05:50;1.17;;;1.02;;
19396;SDS011;9834;48.076;11.878;2023-07-13T11:08:32;2.35;;;0.82;;
19396;SDS011;9834;48.076;11.878;2023-07-13T11:11:02;2.80;;;0.90;;
19396;SDS011;9834;48.076;11.878;2023-07-13T11:13:39;0.82;;;0.82;;
19396;SDS011;9834;48.076;11.878;2023-07-13T11:16:36;1.10;;;0.70;;
19396;SDS011;9834;48.076;11.878;2023-07-13T11:22:12;1.38;;;1.27;;
19396;SDS011;9834;48.076;11.878;2023-07-13T11:24:52;2.03;;;1.60;;
19396;SDS011;9834;48.076;11.878;2023-07-13T11:27:32;1.02;;;0.98;;
19396;SDS011;9834;48.076;11.878;2023-07-13T11:30:16;0.90;;;0.90;;
19396;SDS011;9834;48.076;11.878;2023-07-13T11:32:51;7.28;;;1.67;;
19396;SDS011;9834;48.076;11.878;2023-07-13T11:35:31;0.90;;;0.90;;
19396;SDS011;9834;48.076;11.878;2023-07-13T11:38:01;1.38;;;1.25;;
19396;SDS011;9834;48.076;11.878;2023-07-13T11:40:29;0.80;;;0.80;;
19396;SDS011;9834;48.076;11.878;2023-07-13T11:42:59;5.32;;;1.77;;
19396;SDS011;9834;48.076;11.878;2023-07-13T11:45:28;2.15;;;1.15;;
19396;SDS011;9834;48.076;11.878;2023-07-13T11:47:57;3.08;;;1.48;;
19396;SDS011;9834;48.076;11.878;2023-07-13T11:50:25;9.10;;;1.00;;
19396;SDS011;9834;48.076;11.878;2023-07-13T11:52:52;1.98;;;0.93;;
19396;SDS011;9834;48.076;11.878;2023-07-13T11:55:22;5.32;;;1.58;;
19396;SDS011;9834;48.076;11.878;2023-07-13T11:57:50;2.10;;;1.27;;
19396;SDS011;9834;48.076;11.878;2023-07-13T12:00:23;3.45;;;1.25;;
19396;SDS011;9834;48.076;11.878;2023-07-13T12:02:56;1.77;;;1.35;;
19396;SDS011;9834;48.076;11.878;2023-07-13T12:05:25;1.30;;;1.23;;
19396;SDS011;9834;48.076;11.878;2023-07-13T12:07:53;0.90;;;0.85;;
19396;SDS011;9834;48.076;11.878;2023-07-13T12:10:22;1.55;;;1.08;;
19396;SDS011;9834;48.076;11.878;2023-07-13T12:12:51;1.02;;;0.95;;
19396;SDS011;9834;48.076;11.878;2023-07-13T12:15:20;2.95;;;1.50;;
19396;SDS011;9834;48.076;11.878;2023-07-13T12:17:48;2.75;;;1.23;;
19396;SDS011;9834;48.076;11.878;2023-07-13T12:20:19;2.10;;;1.08;;
19396;SDS011;9834;48.076;11.878;2023-07-13T12:22:49;1.20;;;1.02;;
19396;SDS011;9834;48.076;11.878;2023-07-13T12:25:17;1.15;;;0.82;;
19396;SDS011;9834;48.076;11.878;2023-07-13T12:27:49;1.70;;;1.40;;
19396;SDS011;9834;48.076;11.878;2023-07-13T12:30:23;3.78;;;1.35;;
19396;SDS011;9834;48.076;11.878;2023-07-13T12:32:57;1.65;;;1.00;;
19396;SDS011;9834;48.076;11.878;2023-07-13T12:35:28;1.83;;;1.20;;
19396;SDS011;9834;48.076;11.878;2023-07-13T12:38:00;1.48;;;1.38;;
19396;SDS011;9834;48.076;11.878;2023-07-13T12:40:29;2.00;;;1.13;;
19396;SDS011;9834;48.076;11.878;2023-07-13T12:43:00;10.43;;;1.17;;
19396;SDS011;9834;48.076;11.878;2023-07-13T12:45:29;1.35;;;1.17;;
19396;SDS011;9834;48.076;11.878;2023-07-13T12:47:57;1.20;;;1.05;;
19396;SDS011;9834;48.076;11.878;2023-07-13T12:50:36;1.75;;;1.30;;
19396;SDS011;9834;48.076;11.878;2023-07-13T12:53:09;0.60;;;0.60;;
19396;SDS011;9834;48.076;11.878;2023-07-13T12:55:40;0.50;;;0.50;;
19396;SDS011;9834;48.076;11.878;2023-07-13T12:58:09;3.70;;;1.73;;
19396;SDS011;9834;48.076;11.878;2023-07-13T13:00:48;1.50;;;0.93;;
19396;SDS011;9834;48.076;11.878;2023-07-13T13:03:20;2.45;;;1.48;;
19396;SDS011;9834;48.076;11.878;2023-07-13T13:05:57;0.95;;;0.85;;
19396;SDS011;9834;48.076;11.878;2023-07-13T13:08:28;0.80;;;0.80;;
19396;SDS011;9834;48.076;11.878;2023-07-13T13:10:56;0.93;;;0.93;;
19396;SDS011;9834;48.076;11.878;2023-07-13T13:13:23;1.00;;;0.98;;
19396;SDS011;9834;48.076;11.878;2023-07-13T13:15:50;2.05;;;1.00;;
19396;SDS011;9834;48.076;11.878;2023-07-13T13:18:19;1.70;;;1.20;;
19396;SDS011;9834;48.076;11.878;2023-07-13T13:20:49;1.98;;;1.08;;
19396;SDS011;9834;48.076;11.878;2023-07-13T13:23:19;2.60;;;1.05;;
19396;SDS011;9834;48.076;11.878;2023-07-13T13:25:49;0.80;;;0.73;;
19396;SDS011;9834;48.076;11.878;2023-07-13T13:28:17;7.32;;;1.13;;
19396;SDS011;9834;48.076;11.878;2023-07-13T13:30:46;1.17;;;1.05;;
19396;SDS011;9834;48.076;11.878;2023-07-13T13:33:15;1.25;;;0.90;;
19396;SDS011;9834;48.076;11.878;2023-07-13T13:35:44;1.38;;;1.08;;
19396;SDS011;9834;48.076;11.878;2023-07-13T13:38:11;1.10;;;0.85;;
19396;SDS011;9834;48.076;11.878;2023-07-13T13:40:40;0.75;;;0.75;;
19396;SDS011;9834;48.076;11.878;2023-07-13T13:43:13;1.23;;;1.13;;
19396;SDS011;9834;48.076;11.878;2023-07-13T13:45:42;4.28;;;1.13;;
19396;SDS011;9834;48.076;11.878;2023-07-13T13:48:11;2.92;;;0.88;;
19396;SDS011;9834;48.076;11.878;2023-07-13T13:50:41;2.70;;;1.27;;
19396;SDS011;9834;48.076;11.878;2023-07-13T13:53:09;0.98;;;0.85;;
19396;SDS011;9834;48.076;11.878;2023-07-13T13:55:38;2.70;;;1.23;;
19396;SDS011;9834;48.076;11.878;2023-07-13T13:58:08;0.88;;;0.70;;
19396;SDS011;9834;48.076;11.878;2023-07-13T14:00:37;1.45;;;1.05;;
19396;SDS011;9834;48.076;11.878;2023-07-13T14:03:04;0.60;;;0.60;;
19396;SDS011;9834;48.076;11.878;2023-07-13T14:05:34;0.82;;;0.82;;
19396;SDS011;9834;48.076;11.878;2023-07-13T14:08:01;1.00;;;1.00;;
19396;SDS011;9834;48.076;11.878;2023-07-13T14:10:28;1.60;;;1.40;;
19396;SDS011;9834;48.076;11.878;2023-07-13T14:12:56;1.42;;;1.08;;
19396;SDS011;9834;48.076;11.878;2023-07-13T14:15:26;3.83;;;1.77;;
19396;SDS011;9834;48.076;11.878;2023-07-13T14:17:55;4.68;;;1.50;;
19396;SDS011;9834;48.076;11.878;2023-07-13T14:20:23;6.28;;;1.83;;
19396;SDS011;9834;48.076;11.878;2023-07-13T14:22:51;0.80;;;0.73;;
19396;SDS011;9834;48.076;11.878;2023-07-13T14:25:20;5.13;;;1.48;;
19396;SDS011;9834;48.076;11.878;2023-07-13T14:27:48;2.47;;;0.95;;
19396;SDS011;9834;48.076;11.878;2023-07-13T14:30:21;1.05;;;0.93;;
19396;SDS011;9834;48.076;11.878;2023-07-13T14:32:50;1.10;;;1.00;;
19396;SDS011;9834;48.076;11.878;2023-07-13T14:35:18;1.17;;;0.77;;
19396;SDS011;9834;48.076;11.878;2023-07-13T14:37:48;0.70;;;0.70;;
19396;SDS011;9834;48.076;11.878;2023-07-13T14:40:16;1.58;;;1.17;;
19396;SDS011;9834;48.076;11.878;2023-07-13T14:42:46;1.02;;;0.98;;
19396;SDS011;9834;48.076;11.878;2023-07-13T14:45:13;1.70;;;0.98;;
19396;SDS011;9834;48.076;11.878;2023-07-13T14:47:41;0.90;;;0.90;;
19396;SDS011;9834;48.076;11.878;2023-07-13T14:50:15;1.10;;;0.93;;
19396;SDS011;9834;48.076;11.878;2023-07-13T14:52:43;2.13;;;1.75;;
19396;SDS011;9834;48.076;11.878;2023-07-13T14:55:11;4.20;;;1.10;;
19396;SDS011;9834;48.076;11.878;2023-07-13T14:57:39;6.35;;;1.50;;
19396;SDS011;9834;48.076;11.878;2023-07-13T15:00:12;1.67;;;1.23;;
19396;SDS011;9834;48.076;11.878;2023-07-13T15:02:41;0.57;;;0.57;;
19396;SDS011;9834;48.076;11.878;2023-07-13T15:05:13;1.42;;;1.33;;
19396;SDS011;9834;48.076;11.878;2023-07-13T15:07:43;1.33;;;1.13;;